Time;durP1;ratioP1;P1;durP2;ratioP2;P2;SDS_P1;SDS_P2;PMS_P1;PMS_P2;Temp;Humidity;BMP_temperature;BMP_pressure;BME280_temperature;BME280_humidity;BME280_pressure;Samples;Min_cycle;Max_cycle;Signal;HPM_P1;HPM_P2
2024/03/16 00:02:04;;;;;;;15.07;4.60;;;;;;;;;;5030575;28;20495;-70
2024/03/16 00:04:29;;;;;;;16.93;4.13;;;;;;;;;;5031156;28;20115;-70
2024/03/16 00:06:55;;;;;;;18.75;3.92;;;;;;;;;;5030757;28;20723;-70
2024/03/16 00:09:20;;;;;;;10.57;3.40;;;;;;;;;;5032074;28;20827;-70
2024/03/16 00:11:46;;;;;;;8.97;3.47;;;;;;;;;;5031999;28;20108;-70
2024/03/16 00:14:11;;;;;;;8.13;2.90;;;;;;;;;;5031868;28;20256;-70
2024/03/16 00:16:36;;;;;;;4.47;2.43;;;;;;;;;;5031540;28;20657;-70
2024/03/16 00:19:01;;;;;;;5.03;2.60;;;;;;;;;;5031516;28;20371;-70
2024/03/16 00:21:26;;;;;;;6.78;1.70;;;;;;;;;;5031944;28;20630;-70
2024/03/16 00:23:53;;;;;;;3.40;2.38;;;;;;;;;;5031916;28;20025;-70
2024/03/16 00:26:18;;;;;;;9.63;2.95;;;;;;;;;;5029983;28;20086;-70
2024/03/16 00:28:43;;;;;;;7.85;2.47;;;;;;;;;;5031083;28;20068;-70
2024/03/16 00:31:09;;;;;;;6.10;2.53;;;;;;;;;;5031276;28;20018;-70
2024/03/16 00:33:34;;;;;;;7.03;2.38;;;;;;;;;;5031956;28;20255;-70
2024/03/16 00:36:00;;;;;;;9.50;2.50;;;;;;;;;;5030171;28;20489;-70
2024/03/16 00:38:26;;;;;;;7.63;2.30;;;;;;;;;;5026262;28;20343;-70
2024/03/16 00:40:52;;;;;;;6.90;2.38;;;;;;;;;;5031831;28;20275;-70
2024/03/16 00:43:18;;;;;;;3.03;2.00;;;;;;;;;;5031454;28;20021;-70
2024/03/16 00:45:43;;;;;;;12.05;2.00;;;;;;;;;;5031511;28;20041;-71
2024/03/16 00:48:08;;;;;;;3.15;1.40;;;;;;;;;;5031074;28;20032;-70
2024/03/16 00:50:33;;;;;;;5.13;1.73;;;;;;;;;;5024849;28;20096;-70
2024/03/16 00:52:58;;;;;;;2.90;1.27;;;;;;;;;;5030306;28;20104;-70
2024/03/16 00:55:24;;;;;;;4.40;1.30;;;;;;;;;;5030302;28;20336;-70
2024/03/16 00:57:49;;;;;;;5.03;1.42;;;;;;;;;;5029437;28;20284;-70
2024/03/16 01:00:14;;;;;;;4.97;1.08;;;;;;;;;;5031035;28;20085;-70
2024/03/16 01:02:40;;;;;;;4.13;1.33;;;;;;;;;;5031011;28;20029;-71
2024/03/16 01:05:06;;;;;;;3.00;1.13;;;;;;;;;;5031229;28;20028;-70
2024/03/16 01:07:31;;;;;;;4.78;1.02;;;;;;;;;;5025981;28;20028;-71
2024/03/16 01:09:56;;;;;;;6.65;1.20;;;;;;;;;;5028663;28;20113;-70
2024/03/16 01:12:22;;;;;;;2.27;1.23;;;;;;;;;;5031380;28;20373;-70
2024/03/16 01:14:47;;;;;;;3.13;1.40;;;;;;;;;;5027731;28;20331;-70
2024/03/16 01:17:12;;;;;;;2.13;1.17;;;;;;;;;;5028721;28;20086;-71
2024/03/16 01:19:41;;;;;;;3.73;1.10;;;;;;;;;;5030002;28;21604;-70
2024/03/16 01:22:06;;;;;;;11.10;1.08;;;;;;;;;;5022779;28;20344;-70
2024/03/16 01:24:32;;;;;;;6.10;1.23;;;;;;;;;;5030261;28;20488;-71
2024/03/16 01:26:57;;;;;;;3.72;1.05;;;;;;;;;;5025672;28;20491;-70
2024/03/16 01:29:22;;;;;;;5.47;1.10;;;;;;;;;;5027200;28;20029;-71
2024/03/16 01:31:47;;;;;;;3.83;1.20;;;;;;;;;;5028715;28;20299;-71
2024/03/16 01:34:12;;;;;;;3.47;1.00;;;;;;;;;;5029716;28;20800;-70
2024/03/16 01:36:38;;;;;;;3.03;0.80;;;;;;;;;;5028387;28;20267;-70
2024/03/16 01:39:05;;;;;;;2.45;0.80;;;;;;;;;;5030238;28;20264;-70
2024/03/16 01:41:30;;;;;;;2.17;0.75;;;;;;;;;;5024940;28;20124;-70
2024/03/16 01:44:08;;;;;;;5.53;0.95;;;;;;;;;;5029256;28;20100;-70
2024/03/16 01:46:33;;;;;;;3.58;0.60;;;;;;;;;;5026292;28;20033;-70
2024/03/16 01:48:58;;;;;;;2.23;0.73;;;;;;;;;;5027767;28;20168;-70
2024/03/16 01:51:24;;;;;;;3.00;0.70;;;;;;;;;;5027991;28;20283;-70
2024/03/16 01:53:49;;;;;;;1.07;0.67;;;;;;;;;;5027496;28;20260;-70
2024/03/16 01:56:14;;;;;;;4.50;0.70;;;;;;;;;;5024950;28;20336;-70
2024/03/16 01:58:43;;;;;;;2.55;1.00;;;;;;;;;;5025952;28;20473;-70
2024/03/16 02:01:08;;;;;;;2.83;0.80;;;;;;;;;;5026851;28;20096;-70
2024/03/16 02:03:33;;;;;;;6.40;1.00;;;;;;;;;;5029104;28;20119;-71
2024/03/16 02:05:59;;;;;;;4.85;1.08;;;;;;;;;;5028606;28;20037;-70
2024/03/16 02:08:25;;;;;;;3.65;1.10;;;;;;;;;;5028619;28;20013;-70
2024/03/16 02:10:50;;;;;;;10.15;1.15;;;;;;;;;;5028429;28;20033;-70
2024/03/16 02:13:15;;;;;;;2.07;0.87;;;;;;;;;;5029275;28;20380;-70
2024/03/16 02:15:40;;;;;;;6.18;0.80;;;;;;;;;;5026044;28;20264;-71
2024/03/16 02:18:09;;;;;;;6.27;0.80;;;;;;;;;;5027816;28;20028;-70
2024/03/16 02:20:34;;;;;;;4.47;1.65;;;;;;;;;;5024111;28;20410;-71
2024/03/16 02:22:59;;;;;;;7.90;1.20;;;;;;;;;;5028595;28;20092;-70
2024/03/16 02:25:25;;;;;;;4.30;0.80;;;;;;;;;;5021805;28;20259;-71
2024/03/16 02:27:50;;;;;;;9.43;1.50;;;;;;;;;;5029501;28;20036;-70
2024/03/16 02:30:15;;;;;;;8.82;2.08;;;;;;;;;;5025542;28;21606;-71
2024/03/16 02:32:40;;;;;;;5.15;1.10;;;;;;;;;;5030101;28;20100;-70
2024/03/16 02:41:12;;;;;;;13.50;0.70;;;;;;;;;;5018615;28;20075;-72
2024/03/16 02:43:37;;;;;;;2.50;0.45;;;;;;;;;;5023518;28;20033;-71
2024/03/16 02:46:05;;;;;;;1.30;0.63;;;;;;;;;;5027002;28;20045;-70
2024/03/16 02:48:30;;;;;;;6.18;0.68;;;;;;;;;;5028983;28;20021;-70
2024/03/16 02:50:55;;;;;;;4.33;0.63;;;;;;;;;;5028389;28;20112;-70
2024/03/16 02:53:20;;;;;;;12.73;1.03;;;;;;;;;;5027739;28;20646;-71
2024/03/16 02:55:45;;;;;;;4.57;1.03;;;;;;;;;;5027403;28;20280;-71
2024/03/16 02:58:12;;;;;;;5.80;1.10;;;;;;;;;;5025052;28;20706;-71
2024/03/16 03:00:37;;;;;;;6.40;1.20;;;;;;;;;;5024066;28;20758;-71
2024/03/16 03:03:03;;;;;;;0.88;0.28;;;;;;;;;;5027223;28;20072;-70
2024/03/16 03:05:28;;;;;;;4.18;1.67;;;;;;;;;;5022992;28;20030;-71
2024/03/16 03:07:53;;;;;;;8.32;1.17;;;;;;;;;;5028702;28;20034;-70
2024/03/16 03:10:18;;;;;;;5.07;0.95;;;;;;;;;;5021332;28;20096;-70
2024/03/16 03:12:44;;;;;;;7.28;1.23;;;;;;;;;;5026537;28;20049;-71
2024/03/16 03:15:11;;;;;;;10.38;1.40;;;;;;;;;;5025077;28;20109;-71
2024/03/16 03:17:36;;;;;;;4.18;1.40;;;;;;;;;;5023150;28;20018;-70
2024/03/16 03:20:04;;;;;;;6.57;1.60;;;;;;;;;;5030238;28;20038;-70
2024/03/16 03:22:29;;;;;;;6.53;1.27;;;;;;;;;;5033042;28;20264;-71
2024/03/16 03:24:54;;;;;;;4.27;1.23;;;;;;;;;;5025802;28;20428;-71
2024/03/16 03:27:20;;;;;;;4.10;1.10;;;;;;;;;;5030461;28;20268;-70
2024/03/16 03:29:46;;;;;;;6.78;1.55;;;;;;;;;;5024524;28;20696;-70
2024/03/16 03:32:11;;;;;;;2.35;1.00;;;;;;;;;;5029561;28;20021;-71
2024/03/16 03:34:36;;;;;;;8.70;1.43;;;;;;;;;;5035143;28;20022;-70
2024/03/16 03:37:01;;;;;;;12.50;1.50;;;;;;;;;;5033579;28;20272;-71
2024/03/16 03:39:26;;;;;;;2.03;1.10;;;;;;;;;;5036499;28;20264;-71
2024/03/16 03:41:52;;;;;;;10.00;1.85;;;;;;;;;;5032628;28;20279;-70
2024/03/16 03:44:21;;;;;;;5.00;1.65;;;;;;;;;;5026546;28;20037;-70
2024/03/16 03:46:50;;;;;;;12.05;3.13;;;;;;;;;;5031035;28;20106;-70
2024/03/16 03:49:26;;;;;;;5.32;1.15;;;;;;;;;;5025152;28;20025;-70
2024/03/16 03:51:51;;;;;;;7.20;1.90;;;;;;;;;;5032153;28;20418;-70
2024/03/16 03:54:17;;;;;;;7.45;1.77;;;;;;;;;;5029848;28;20018;-70
2024/03/16 03:56:42;;;;;;;13.57;2.40;;;;;;;;;;5025807;28;20043;-70
2024/03/16 03:59:07;;;;;;;8.03;2.20;;;;;;;;;;5029631;28;20274;-70
2024/03/16 04:01:32;;;;;;;9.43;1.83;;;;;;;;;;5030641;28;21036;-70
2024/03/16 04:03:58;;;;;;;7.77;1.77;;;;;;;;;;5033296;28;20335;-70
2024/03/16 04:06:24;;;;;;;9.02;2.85;;;;;;;;;;5031195;28;21741;-70
2024/03/16 04:08:49;;;;;;;7.18;2.15;;;;;;;;;;5034812;28;20062;-71
2024/03/16 04:11:14;;;;;;;7.90;2.27;;;;;;;;;;5031832;28;20568;-70
2024/03/16 04:13:39;;;;;;;9.15;2.80;;;;;;;;;;5031271;28;20283;-71
2024/03/16 04:16:04;;;;;;;8.00;2.50;;;;;;;;;;5031400;28;20072;-70
2024/03/16 04:18:30;;;;;;;12.50;2.30;;;;;;;;;;5031323;28;20276;-71
2024/03/16 04:20:55;;;;;;;11.38;3.10;;;;;;;;;;5026946;28;20025;-70
2024/03/16 04:23:20;;;;;;;6.10;2.30;;;;;;;;;;5035281;28;20028;-70
2024/03/16 04:25:45;;;;;;;7.30;2.77;;;;;;;;;;5031185;28;20256;-70
2024/03/16 04:28:12;;;;;;;11.77;2.60;;;;;;;;;;5030152;28;20351;-70
2024/03/16 04:30:37;;;;;;;13.90;2.80;;;;;;;;;;5027628;28;20338;-70
2024/03/16 04:33:03;;;;;;;9.70;3.10;;;;;;;;;;5035384;28;20021;-70
2024/03/16 04:35:28;;;;;;;9.82;2.58;;;;;;;;;;5028203;28;20256;-70
2024/03/16 04:37:54;;;;;;;12.27;3.05;;;;;;;;;;5029867;28;20646;-71
2024/03/16 04:40:19;;;;;;;14.60;3.05;;;;;;;;;;5030804;28;20527;-71
2024/03/16 04:42:44;;;;;;;6.57;2.30;;;;;;;;;;5034480;28;20021;-70
2024/03/16 04:45:09;;;;;;;10.40;2.65;;;;;;;;;;5027266;28;20035;-70
2024/03/16 04:47:35;;;;;;;7.65;3.08;;;;;;;;;;5031388;28;20439;-70
2024/03/16 04:50:00;;;;;;;8.68;3.33;;;;;;;;;;5030781;28;20025;-71
2024/03/16 04:52:25;;;;;;;11.70;3.67;;;;;;;;;;5026322;28;20140;-70
2024/03/16 04:54:51;;;;;;;22.20;4.65;;;;;;;;;;5026979;28;20021;-71
2024/03/16 04:57:18;;;;;;;9.07;3.33;;;;;;;;;;5029275;28;20024;-70
2024/03/16 04:59:43;;;;;;;15.23;3.55;;;;;;;;;;5034676;28;20108;-71
2024/03/16 05:02:08;;;;;;;14.30;3.00;;;;;;;;;;5031369;28;20104;-71
2024/03/16 05:04:33;;;;;;;13.30;4.07;;;;;;;;;;5031681;28;20762;-69
2024/03/16 05:06:59;;;;;;;9.77;3.70;;;;;;;;;;5024912;28;20268;-70
2024/03/16 05:09:24;;;;;;;13.13;4.17;;;;;;;;;;5030036;28;20307;-70
2024/03/16 05:11:49;;;;;;;14.90;4.82;;;;;;;;;;5026524;28;20256;-70
2024/03/16 05:14:14;;;;;;;16.75;5.35;;;;;;;;;;5030246;28;20045;-70
2024/03/16 05:16:40;;;;;;;14.40;5.57;;;;;;;;;;5026488;28;20528;-69
2024/03/16 05:19:06;;;;;;;14.45;5.50;;;;;;;;;;5031591;28;20264;-70
2024/03/16 05:21:31;;;;;;;16.52;5.65;;;;;;;;;;5029927;28;20061;-70
2024/03/16 05:23:57;;;;;;;13.82;5.97;;;;;;;;;;5026051;28;20064;-69
2024/03/16 05:26:22;;;;;;;13.82;5.65;;;;;;;;;;5027219;28;20044;-69
2024/03/16 05:28:47;;;;;;;21.38;7.50;;;;;;;;;;5029406;28;20083;-70
2024/03/16 05:31:13;;;;;;;23.58;6.00;;;;;;;;;;5029255;28;20028;-69
2024/03/16 05:33:38;;;;;;;17.73;6.70;;;;;;;;;;5029546;28;20018;-70
2024/03/16 05:36:05;;;;;;;18.17;6.72;;;;;;;;;;5028039;28;20063;-70
2024/03/16 05:38:30;;;;;;;17.40;8.20;;;;;;;;;;5029015;28;20021;-70
2024/03/16 05:40:56;;;;;;;17.23;7.18;;;;;;;;;;5029432;28;20622;-69
2024/03/16 05:43:21;;;;;;;20.13;8.20;;;;;;;;;;5026567;28;20036;-70
2024/03/16 05:45:52;;;;;;;25.63;8.03;;;;;;;;;;5034576;28;20030;-70
2024/03/16 05:48:18;;;;;;;20.08;7.70;;;;;;;;;;5035011;28;20248;-70
2024/03/16 05:50:43;;;;;;;19.73;9.10;;;;;;;;;;5024369;28;20079;-70
2024/03/16 05:53:08;;;;;;;21.33;10.85;;;;;;;;;;5029795;28;20687;-70
2024/03/16 05:55:34;;;;;;;28.87;10.23;;;;;;;;;;5029418;28;20104;-70
2024/03/16 05:57:59;;;;;;;20.10;8.63;;;;;;;;;;5027487;28;20636;-70
2024/03/16 06:00:24;;;;;;;25.33;10.07;;;;;;;;;;5027422;28;20256;-70
2024/03/16 06:02:49;;;;;;;34.53;11.73;;;;;;;;;;5029924;28;20763;-70
2024/03/16 06:05:14;;;;;;;26.23;8.40;;;;;;;;;;5028976;28;20032;-70
2024/03/16 06:07:39;;;;;;;19.63;8.43;;;;;;;;;;5028992;28;20029;-70
2024/03/16 06:10:09;;;;;;;18.25;8.63;;;;;;;;;;5025936;28;20370;-70
2024/03/16 06:12:34;;;;;;;24.08;8.73;;;;;;;;;;5025362;28;20025;-70
2024/03/16 06:14:59;;;;;;;24.27;8.27;;;;;;;;;;5032410;28;20025;-70
2024/03/16 06:17:24;;;;;;;22.73;8.20;;;;;;;;;;5036175;28;20746;-70
2024/03/16 06:19:50;;;;;;;16.20;7.57;;;;;;;;;;5028398;28;20291;-70
2024/03/16 06:22:16;;;;;;;21.65;8.38;;;;;;;;;;5029668;28;20401;-70
2024/03/16 06:24:42;;;;;;;15.68;7.20;;;;;;;;;;5026530;28;20079;-70
2024/03/16 06:27:09;;;;;;;23.23;7.57;;;;;;;;;;5030528;28;20485;-70
2024/03/16 06:29:34;;;;;;;15.65;7.38;;;;;;;;;;5024770;28;20443;-69
2024/03/16 06:32:06;;;;;;;20.43;8.00;;;;;;;;;;5028306;28;20051;-70
2024/03/16 06:34:33;;;;;;;16.75;9.18;;;;;;;;;;5024566;28;20785;-69
2024/03/16 06:36:58;;;;;;;19.23;9.27;;;;;;;;;;5025665;28;20501;-69
2024/03/16 06:39:23;;;;;;;17.35;7.28;;;;;;;;;;5026853;28;20025;-69
2024/03/16 06:41:49;;;;;;;12.88;6.38;;;;;;;;;;5028860;28;20037;-69
2024/03/16 06:44:14;;;;;;;14.13;4.43;;;;;;;;;;5027669;28;20013;-69
2024/03/16 06:46:40;;;;;;;12.37;4.40;;;;;;;;;;5026111;28;20033;-69
2024/03/16 06:49:05;;;;;;;21.60;5.60;;;;;;;;;;5028916;28;20635;-70
2024/03/16 06:51:30;;;;;;;18.98;4.95;;;;;;;;;;5025719;28;20414;-70
2024/03/16 06:53:55;;;;;;;12.40;5.95;;;;;;;;;;5027671;28;20026;-70
2024/03/16 06:56:21;;;;;;;9.70;4.20;;;;;;;;;;5028361;28;20032;-70
2024/03/16 06:58:46;;;;;;;12.43;4.75;;;;;;;;;;5028969;28;20289;-70
2024/03/16 07:01:13;;;;;;;13.65;4.13;;;;;;;;;;5027028;28;20024;-70
2024/03/16 07:03:39;;;;;;;14.15;3.95;;;;;;;;;;5021635;28;20119;-70
2024/03/16 07:06:06;;;;;;;10.40;3.55;;;;;;;;;;5027183;28;20475;-70
2024/03/16 07:08:31;;;;;;;11.68;4.18;;;;;;;;;;5028638;28;20021;-70
2024/03/16 07:10:56;;;;;;;8.77;4.20;;;;;;;;;;5027453;28;20491;-70
2024/03/16 07:13:22;;;;;;;15.25;3.65;;;;;;;;;;5026606;28;20277;-70
2024/03/16 07:15:47;;;;;;;13.52;4.88;;;;;;;;;;5028032;28;20021;-70
2024/03/16 07:18:12;;;;;;;9.30;3.30;;;;;;;;;;5022599;28;20025;-70
2024/03/16 07:20:37;;;;;;;7.82;3.65;;;;;;;;;;5024845;28;20290;-70
2024/03/16 07:23:03;;;;;;;7.17;3.60;;;;;;;;;;5030476;28;20025;-70
2024/03/16 07:25:28;;;;;;;10.75;4.80;;;;;;;;;;5030855;28;20297;-70
2024/03/16 07:27:53;;;;;;;8.00;3.78;;;;;;;;;;5028308;28;20484;-70
2024/03/16 07:30:19;;;;;;;11.13;3.90;;;;;;;;;;5027370;28;20036;-70
2024/03/16 07:32:46;;;;;;;9.85;4.22;;;;;;;;;;5026956;28;20256;-70
2024/03/16 07:35:11;;;;;;;8.00;3.63;;;;;;;;;;5028949;28;20071;-70
2024/03/16 07:37:36;;;;;;;13.68;4.10;;;;;;;;;;5024649;28;20013;-70
2024/03/16 07:40:03;;;;;;;10.17;3.90;;;;;;;;;;5026471;28;20455;-70
2024/03/16 07:42:29;;;;;;;9.00;3.22;;;;;;;;;;5027012;28;21125;-70
2024/03/16 07:44:54;;;;;;;8.70;3.78;;;;;;;;;;5027492;28;20021;-70
2024/03/16 07:47:20;;;;;;;6.40;2.87;;;;;;;;;;5027228;28;20029;-70
2024/03/16 07:49:45;;;;;;;8.90;3.60;;;;;;;;;;5023662;28;20804;-70
2024/03/16 07:52:11;;;;;;;8.93;3.47;;;;;;;;;;5028148;28;20075;-70
2024/03/16 07:54:37;;;;;;;6.50;3.60;;;;;;;;;;5027475;28;20640;-70
2024/03/16 07:57:02;;;;;;;8.23;2.88;;;;;;;;;;5024634;28;20037;-70
2024/03/16 07:59:27;;;;;;;6.97;2.88;;;;;;;;;;5023000;28;20108;-70
2024/03/16 08:01:52;;;;;;;6.17;3.13;;;;;;;;;;5027154;28;20033;-70
2024/03/16 08:04:17;;;;;;;6.28;2.95;;;;;;;;;;5025305;28;20295;-70
2024/03/16 08:06:43;;;;;;;7.45;3.30;;;;;;;;;;5030396;28;20033;-70
2024/03/16 08:09:14;;;;;;;4.80;3.53;;;;;;;;;;5030184;28;20034;-70
2024/03/16 08:11:41;;;;;;;6.53;3.25;;;;;;;;;;5030647;28;20322;-70
2024/03/16 08:14:08;;;;;;;6.95;3.25;;;;;;;;;;5027981;28;20107;-70
2024/03/16 08:16:33;;;;;;;4.82;2.90;;;;;;;;;;5025411;28;20052;-70
2024/03/16 08:18:58;;;;;;;7.20;3.90;;;;;;;;;;5028016;28;20056;-70
2024/03/16 08:21:23;;;;;;;7.07;3.80;;;;;;;;;;5029788;28;20628;-70
2024/03/16 08:23:49;;;;;;;9.80;3.57;;;;;;;;;;5028930;28;20164;-70
2024/03/16 08:26:14;;;;;;;6.78;3.08;;;;;;;;;;5024117;28;20743;-70
2024/03/16 08:28:39;;;;;;;10.57;3.17;;;;;;;;;;5022158;28;20140;-70
2024/03/16 08:31:08;;;;;;;10.05;3.42;;;;;;;;;;5028461;28;20769;-70
2024/03/16 08:33:33;;;;;;;8.50;3.92;;;;;;;;;;5028964;28;20396;-70
2024/03/16 08:35:58;;;;;;;9.65;4.28;;;;;;;;;;5027819;28;20025;-70
2024/03/16 08:38:26;;;;;;;6.67;4.13;;;;;;;;;;5027675;28;20467;-70
2024/03/16 08:40:51;;;;;;;9.68;4.22;;;;;;;;;;5024573;28;20272;-70
2024/03/16 08:43:17;;;;;;;8.63;4.55;;;;;;;;;;5031639;28;20036;-70
2024/03/16 08:45:43;;;;;;;9.53;4.00;;;;;;;;;;5031579;28;20045;-70
2024/03/16 08:48:08;;;;;;;10.73;4.47;;;;;;;;;;5028966;28;20272;-70
2024/03/16 08:50:33;;;;;;;6.15;3.08;;;;;;;;;;5029220;28;20507;-70
2024/03/16 08:52:58;;;;;;;5.53;3.25;;;;;;;;;;5029127;28;20519;-70
2024/03/16 08:55:25;;;;;;;10.03;5.27;;;;;;;;;;5029038;28;20396;-70
2024/03/16 08:57:51;;;;;;;5.50;3.10;;;;;;;;;;5028406;28;20260;-70
2024/03/16 09:00:16;;;;;;;6.88;3.03;;;;;;;;;;5025926;28;20032;-70
2024/03/16 09:02:41;;;;;;;5.30;2.67;;;;;;;;;;5028698;28;20032;-70
2024/03/16 09:05:10;;;;;;;4.22;1.98;;;;;;;;;;5026844;28;20025;-70
2024/03/16 09:07:38;;;;;;;5.88;2.55;;;;;;;;;;5021199;28;20447;-70
2024/03/16 09:10:06;;;;;;;6.22;2.30;;;;;;;;;;5026865;28;20468;-70
2024/03/16 09:12:31;;;;;;;7.07;2.42;;;;;;;;;;5027585;28;20112;-70
2024/03/16 09:14:56;;;;;;;7.23;2.57;;;;;;;;;;5024967;28;20104;-70
2024/03/16 09:17:21;;;;;;;8.40;2.43;;;;;;;;;;5024617;28;20347;-70
2024/03/16 09:19:47;;;;;;;10.27;2.33;;;;;;;;;;5026977;28;20276;-70
2024/03/16 09:22:12;;;;;;;4.43;2.00;;;;;;;;;;5026467;28;20306;-70
2024/03/16 09:24:37;;;;;;;4.40;2.10;;;;;;;;;;5030164;28;20029;-70
2024/03/16 09:27:03;;;;;;;8.45;2.65;;;;;;;;;;5024885;28;20040;-70
2024/03/16 09:29:29;;;;;;;5.45;2.00;;;;;;;;;;5027321;28;20025;-70
2024/03/16 09:31:54;;;;;;;4.05;1.83;;;;;;;;;;5029357;28;20412;-70
2024/03/16 09:34:20;;;;;;;7.25;2.03;;;;;;;;;;5029781;28;20539;-70
2024/03/16 09:36:45;;;;;;;6.40;2.00;;;;;;;;;;5024124;28;20013;-70
2024/03/16 09:39:10;;;;;;;6.53;2.03;;;;;;;;;;5024550;28;20033;-70
2024/03/16 09:41:38;;;;;;;5.55;1.95;;;;;;;;;;5028637;28;20279;-70
2024/03/16 09:44:03;;;;;;;6.00;1.63;;;;;;;;;;5029964;28;20096;-70
2024/03/16 09:46:31;;;;;;;3.47;1.23;;;;;;;;;;5029271;28;20143;-71
2024/03/16 09:48:56;;;;;;;6.90;1.52;;;;;;;;;;5030205;28;20276;-70
2024/03/16 09:51:22;;;;;;;7.65;2.25;;;;;;;;;;5029630;28;20052;-70
2024/03/16 09:53:47;;;;;;;5.15;1.77;;;;;;;;;;5030611;28;20017;-71
2024/03/16 09:56:16;;;;;;;8.33;1.83;;;;;;;;;;5025441;28;20495;-70
2024/03/16 09:58:41;;;;;;;9.38;2.42;;;;;;;;;;5026858;28;20369;-70
2024/03/16 10:01:07;;;;;;;2.90;2.10;;;;;;;;;;5028625;28;20017;-70
2024/03/16 10:03:33;;;;;;;12.45;2.35;;;;;;;;;;5029210;28;20256;-70
2024/03/16 10:05:59;;;;;;;5.47;1.30;;;;;;;;;;5029748;28;20024;-71
2024/03/16 10:08:25;;;;;;;4.53;1.33;;;;;;;;;;5034980;28;20369;-70
2024/03/16 10:10:50;;;;;;;7.13;1.48;;;;;;;;;;5029705;28;20040;-70
2024/03/16 10:13:17;;;;;;;9.85;1.73;;;;;;;;;;5028297;28;20032;-70
2024/03/16 10:15:43;;;;;;;5.10;1.65;;;;;;;;;;5027889;28;20029;-70
2024/03/16 10:18:09;;;;;;;6.55;2.10;;;;;;;;;;5029273;28;20031;-71
2024/03/16 10:20:35;;;;;;;9.75;1.60;;;;;;;;;;5028619;28;20107;-70
2024/03/16 10:23:00;;;;;;;6.63;2.15;;;;;;;;;;5029679;28;20028;-71
2024/03/16 10:25:26;;;;;;;8.40;2.80;;;;;;;;;;5029815;28;20033;-70
2024/03/16 10:27:51;;;;;;;11.73;3.93;;;;;;;;;;5027833;28;20272;-70
2024/03/16 10:30:16;;;;;;;11.20;5.33;;;;;;;;;;5027750;28;20367;-70
2024/03/16 10:32:53;;;;;;;23.38;7.13;;;;;;;;;;5029335;28;20248;-70
2024/03/16 10:35:25;;;;;;;14.80;6.60;;;;;;;;;;5028459;28;20100;-70
2024/03/16 10:37:51;;;;;;;14.43;6.80;;;;;;;;;;5029449;28;20021;-70
2024/03/16 10:40:16;;;;;;;16.60;6.80;;;;;;;;;;5029763;28;20021;-70
2024/03/16 10:42:50;;;;;;;15.10;6.03;;;;;;;;;;5028877;28;20634;-70
2024/03/16 10:45:16;;;;;;;12.45;5.63;;;;;;;;;;5027408;28;20029;-70
2024/03/16 10:47:46;;;;;;;11.57;4.93;;;;;;;;;;5028873;28;20434;-70
2024/03/16 10:50:11;;;;;;;8.32;3.75;;;;;;;;;;5028749;28;20021;-71
2024/03/16 10:52:39;;;;;;;7.95;3.55;;;;;;;;;;5028986;28;20029;-70
2024/03/16 10:55:07;;;;;;;9.88;4.20;;;;;;;;;;5026069;28;20017;-71
2024/03/16 10:57:33;;;;;;;10.98;3.08;;;;;;;;;;5028104;28;20037;-71
2024/03/16 10:59:58;;;;;;;10.40;2.70;;;;;;;;;;5026903;28;20056;-70
2024/03/16 11:02:24;;;;;;;9.73;2.67;;;;;;;;;;5028690;28;20147;-70
2024/03/16 11:04:52;;;;;;;5.30;2.00;;;;;;;;;;5025808;28;20112;-70
2024/03/16 11:07:20;;;;;;;5.57;2.33;;;;;;;;;;5028225;28;20318;-70
2024/03/16 11:09:45;;;;;;;7.30;2.38;;;;;;;;;;5028773;28;20080;-70
2024/03/16 11:12:29;;;;;;;10.20;3.47;;;;;;;;;;5028100;28;20407;-70
2024/03/16 11:15:15;;;;;;;9.65;4.68;;;;;;;;;;5027109;28;20354;-70
2024/03/16 11:17:40;;;;;;;9.95;4.38;;;;;;;;;;5025174;28;20104;-70
2024/03/16 11:20:24;;;;;;;8.93;3.90;;;;;;;;;;5031617;28;20111;-70
2024/03/16 11:22:49;;;;;;;10.82;4.22;;;;;;;;;;5029072;28;20041;-70
2024/03/16 11:25:18;;;;;;;8.97;4.03;;;;;;;;;;5027945;28;20085;-70
2024/03/16 11:27:50;;;;;;;10.43;3.25;;;;;;;;;;5027817;28;20842;-70
2024/03/16 11:30:19;;;;;;;9.05;2.83;;;;;;;;;;5025480;28;20021;-70
2024/03/16 11:32:44;;;;;;;18.43;3.97;;;;;;;;;;5028706;28;20013;-70
2024/03/16 11:35:12;;;;;;;6.50;2.47;;;;;;;;;;5028176;28;20376;-70
2024/03/16 11:37:38;;;;;;;9.15;2.45;;;;;;;;;;5027859;28;20387;-70
2024/03/16 11:40:03;;;;;;;5.97;2.20;;;;;;;;;;5029904;28;20026;-71
2024/03/16 11:42:29;;;;;;;6.55;2.28;;;;;;;;;;5032477;28;20075;-70
2024/03/16 11:44:54;;;;;;;6.60;2.40;;;;;;;;;;5030529;28;20072;-70
2024/03/16 11:47:20;;;;;;;4.50;1.65;;;;;;;;;;5030381;28;20052;-70
2024/03/16 11:49:46;;;;;;;7.18;1.42;;;;;;;;;;5032302;28;20048;-70
2024/03/16 11:52:11;;;;;;;7.55;1.63;;;;;;;;;;5032151;28;20380;-70
2024/03/16 11:54:36;;;;;;;4.00;1.40;;;;;;;;;;5032394;28;20728;-70
2024/03/16 11:57:02;;;;;;;2.87;1.03;;;;;;;;;;5031620;28;20263;-70
2024/03/16 11:59:28;;;;;;;6.82;0.80;;;;;;;;;;5031004;28;20280;-70
2024/03/16 12:01:54;;;;;;;2.53;0.73;;;;;;;;;;5032346;28;20036;-70
2024/03/16 12:04:24;;;;;;;4.25;0.88;;;;;;;;;;5032079;28;20029;-70
2024/03/16 12:06:49;;;;;;;;;;;;;;;;;;5032695;28;20119;-70
2024/03/16 12:09:17;;;;;;;7.05;1.05;;;;;;;;;;5029147;28;19920;-70
2024/03/16 12:11:48;;;;;;;4.80;2.28;;;;;;;;;;5032052;28;20024;-70
2024/03/16 12:14:17;;;;;;;4.53;1.38;;;;;;;;;;5029917;28;20388;-70
2024/03/16 12:16:42;;;;;;;6.18;1.02;;;;;;;;;;5030852;28;20018;-70
2024/03/16 12:19:09;;;;;;;4.97;0.88;;;;;;;;;;5031284;28;20423;-70
2024/03/16 12:21:39;;;;;;;2.20;0.90;;;;;;;;;;5031609;28;20033;-70
2024/03/16 12:24:05;;;;;;;6.00;0.85;;;;;;;;;;5031669;28;20032;-70
2024/03/16 12:26:31;;;;;;;8.18;1.00;;;;;;;;;;5025341;28;20104;-70
2024/03/16 12:29:09;;;;;;;3.47;1.00;;;;;;;;;;5031292;28;20029;-70
2024/03/16 12:31:39;;;;;;;2.53;0.77;;;;;;;;;;5027840;28;20097;-70
2024/03/16 12:34:04;;;;;;;2.78;0.63;;;;;;;;;;5030059;28;20395;-70
2024/03/16 12:36:29;;;;;;;3.28;0.90;;;;;;;;;;5025265;28;20021;-70
2024/03/16 12:38:54;;;;;;;7.57;1.35;;;;;;;;;;5031853;28;20025;-70
2024/03/16 12:41:19;;;;;;;3.33;1.20;;;;;;;;;;5031290;28;20029;-70
2024/03/16 12:43:45;;;;;;;3.30;0.93;;;;;;;;;;5031890;28;20276;-70
2024/03/16 12:46:10;;;;;;;6.23;1.00;;;;;;;;;;5028349;28;20113;-70
2024/03/16 12:48:35;;;;;;;1.90;0.80;;;;;;;;;;5030890;28;20296;-70
2024/03/16 12:51:00;;;;;;;4.95;1.20;;;;;;;;;;5028242;28;20033;-70
2024/03/16 12:53:25;;;;;;;6.43;0.87;;;;;;;;;;5030639;28;20025;-70
2024/03/16 12:55:50;;;;;;;5.20;1.67;;;;;;;;;;5029441;28;20363;-70
2024/03/16 12:58:16;;;;;;;2.47;1.00;;;;;;;;;;5030892;28;20068;-70
2024/03/16 13:00:42;;;;;;;7.50;1.13;;;;;;;;;;5025640;28;20259;-69
2024/03/16 13:03:07;;;;;;;1.80;0.70;;;;;;;;;;5027981;28;20291;-70
2024/03/16 13:05:33;;;;;;;3.50;1.02;;;;;;;;;;5028951;28;20025;-70
2024/03/16 13:07:59;;;;;;;9.85;1.00;;;;;;;;;;5030135;28;20025;-70
2024/03/16 13:10:24;;;;;;;1.70;0.90;;;;;;;;;;5029900;28;20472;-70
2024/03/16 13:12:51;;;;;;;2.67;0.53;;;;;;;;;;5031618;28;20026;-70
2024/03/16 13:15:17;;;;;;;2.60;0.75;;;;;;;;;;5029687;28;20255;-70
2024/03/16 13:17:46;;;;;;;5.32;0.90;;;;;;;;;;5028465;28;20021;-70
2024/03/16 13:20:16;;;;;;;6.20;0.95;;;;;;;;;;5028396;28;20022;-70
2024/03/16 13:22:41;;;;;;;5.95;1.35;;;;;;;;;;5028706;28;20045;-70
2024/03/16 13:25:07;;;;;;;3.60;1.30;;;;;;;;;;5030629;28;20080;-70
2024/03/16 13:27:32;;;;;;;3.85;1.17;;;;;;;;;;5030729;28;20309;-70
2024/03/16 13:29:57;;;;;;;5.25;1.55;;;;;;;;;;5030589;28;20112;-70
2024/03/16 13:32:23;;;;;;;4.47;1.10;;;;;;;;;;5029762;28;20033;-69
2024/03/16 13:34:48;;;;;;;3.17;1.60;;;;;;;;;;5030884;28;20465;-70
2024/03/16 13:37:13;;;;;;;3.55;1.27;;;;;;;;;;5027826;28;20021;-70
2024/03/16 13:39:39;;;;;;;3.67;1.48;;;;;;;;;;5028728;28;20025;-69
2024/03/16 13:42:06;;;;;;;3.60;1.20;;;;;;;;;;5030731;28;20460;-70
2024/03/16 13:44:34;;;;;;;3.17;0.88;;;;;;;;;;5029750;28;20264;-70
2024/03/16 13:47:00;;;;;;;3.70;1.13;;;;;;;;;;5029551;28;20033;-70
2024/03/16 13:49:26;;;;;;;2.83;1.00;;;;;;;;;;5029839;28;20022;-69
2024/03/16 13:51:51;;;;;;;6.10;1.23;;;;;;;;;;5030421;28;20016;-70
2024/03/16 13:54:16;;;;;;;5.57;1.30;;;;;;;;;;5030113;28;20010;-69
2024/03/16 13:56:42;;;;;;;4.37;1.37;;;;;;;;;;5027744;28;20366;-70
2024/03/16 13:59:07;;;;;;;2.15;1.20;;;;;;;;;;5029871;28;20267;-70
2024/03/16 14:01:32;;;;;;;2.13;1.08;;;;;;;;;;5029341;28;20017;-70
2024/03/16 14:03:58;;;;;;;3.72;0.88;;;;;;;;;;5030057;28;20113;-70
2024/03/16 14:06:25;;;;;;;7.20;1.15;;;;;;;;;;5027981;28;20116;-70
2024/03/16 14:08:50;;;;;;;4.82;1.17;;;;;;;;;;5029420;28;20021;-70
2024/03/16 14:11:15;;;;;;;3.83;1.15;;;;;;;;;;5028475;28;20361;-70
2024/03/16 14:13:40;;;;;;;2.57;1.20;;;;;;;;;;5030268;28;20064;-69
2024/03/16 14:16:05;;;;;;;3.43;1.50;;;;;;;;;;5029417;28;20259;-69
2024/03/16 14:18:31;;;;;;;4.00;1.00;;;;;;;;;;5029662;28;20302;-69
2024/03/16 14:20:57;;;;;;;5.15;1.58;;;;;;;;;;5029252;28;20611;-69
2024/03/16 14:23:22;;;;;;;4.60;1.20;;;;;;;;;;5029702;28;20018;-69
2024/03/16 14:25:47;;;;;;;3.73;1.47;;;;;;;;;;5028551;28;20029;-69
2024/03/16 14:28:13;;;;;;;4.03;1.42;;;;;;;;;;5029185;28;20284;-70
2024/03/16 14:30:38;;;;;;;4.57;1.30;;;;;;;;;;5029172;28;20029;-69
2024/03/16 14:33:03;;;;;;;3.60;1.40;;;;;;;;;;5029511;28;20498;-69
2024/03/16 14:35:29;;;;;;;7.03;1.52;;;;;;;;;;5027803;28;20022;-69
2024/03/16 14:37:54;;;;;;;6.75;1.70;;;;;;;;;;5028600;28;20017;-69